createdAt,value
2018-08-18T00:00:01.672Z,19.63
2018-08-18T00:01:01.665Z,19.63
2018-08-18T00:02:01.649Z,19.58
2018-08-18T00:03:01.640Z,19.66
2018-08-18T00:04:01.656Z,19.68
2018-08-18T00:05:01.620Z,19.66
2018-08-18T00:06:01.606Z,19.66
2018-08-18T00:07:01.606Z,19.58
2018-08-18T00:08:01.583Z,19.56
2018-08-18T00:09:01.594Z,19.54
2018-08-18T00:10:01.563Z,19.56
2018-08-18T00:11:01.550Z,19.56
2018-08-18T00:12:01.542Z,19.47
2018-08-18T00:13:01.556Z,19.44
2018-08-18T00:14:01.517Z,19.41
2018-08-18T00:15:01.509Z,19.39
2018-08-18T00:16:01.495Z,19.36
2018-08-18T00:17:01.485Z,19.41
2018-08-18T00:18:01.498Z,19.40
2018-08-18T00:19:01.463Z,19.36
2018-08-18T00:20:01.458Z,19.25
2018-08-18T00:21:01.477Z,19.32
2018-08-18T00:22:01.432Z,19.23
2018-08-18T00:23:01.422Z,19.29
2018-08-18T00:24:01.408Z,19.26
2018-08-18T00:25:01.398Z,19.29
2018-08-18T00:26:01.446Z,19.23
2018-08-18T00:27:01.395Z,19.22
2018-08-18T00:28:01.391Z,19.28
2018-08-18T00:29:01.428Z,19.22
2018-08-18T00:30:01.342Z,19.21
2018-08-18T00:31:01.353Z,19.19
2018-08-18T00:32:01.326Z,19.16
2018-08-18T00:33:01.348Z,19.14
2018-08-18T00:34:01.310Z,19.11
2018-08-18T00:35:01.288Z,19.22
2018-08-18T00:36:01.298Z,19.22
2018-08-18T00:37:01.265Z,19.06
2018-08-18T00:38:01.256Z,19.06
2018-08-18T00:39:01.244Z,19.08
2018-08-18T00:40:01.281Z,19.10
2018-08-18T00:41:01.230Z,19.08
2018-08-18T00:42:01.216Z,19.07
2018-08-18T00:43:01.231Z,19.00
2018-08-18T00:44:01.189Z,18.92
2018-08-18T00:45:01.177Z,19.04
2018-08-18T00:46:01.166Z,19.04
2018-08-18T00:47:01.154Z,19.02
2018-08-18T00:48:01.195Z,19.00
2018-08-18T00:49:01.133Z,18.94
2018-08-18T00:50:01.127Z,18.98
2018-08-18T00:51:01.111Z,19.00
2018-08-18T00:52:01.100Z,18.95
2018-08-18T00:53:01.110Z,18.95
2018-08-18T00:54:01.077Z,18.91
2018-08-18T00:55:01.071Z,18.95
2018-08-18T00:56:01.064Z,18.91
2018-08-18T00:57:01.045Z,18.95
2018-08-18T00:58:01.067Z,18.99
2018-08-18T00:59:01.028Z,19.00
2018-08-18T01:00:01.020Z,18.95
2018-08-18T01:01:01.001Z,18.98
2018-08-18T01:02:00.991Z,18.99
2018-08-18T01:03:01.005Z,18.95
2018-08-18T01:04:00.975Z,18.98
2018-08-18T01:05:00.966Z,18.98
2018-08-18T01:06:00.946Z,18.88
2018-08-18T01:07:00.935Z,18.91
2018-08-18T01:08:00.944Z,18.91
2018-08-18T01:09:00.934Z,18.94
2018-08-18T01:10:00.926Z,18.92
2018-08-18T01:11:00.991Z,19.00
2018-08-18T01:12:01.011Z,18.99
2018-08-18T01:13:00.998Z,18.94
2018-08-18T01:14:01.038Z,18.92
2018-08-18T01:15:00.870Z,18.91
2018-08-18T01:16:00.837Z,18.90
2018-08-18T01:17:00.826Z,18.94
2018-08-18T01:18:00.814Z,18.94
2018-08-18T01:19:00.824Z,18.88
2018-08-18T01:20:00.792Z,19.00
2018-08-18T01:21:00.782Z,18.98
2018-08-18T01:22:00.777Z,18.91
2018-08-18T01:23:00.759Z,18.95
2018-08-18T01:24:00.776Z,18.88
2018-08-18T01:25:00.737Z,18.98
2018-08-18T01:26:00.750Z,18.92
2018-08-18T01:27:00.753Z,18.99
2018-08-18T01:28:00.708Z,18.99
2018-08-18T01:29:00.694Z,18.98
2018-08-18T01:30:00.684Z,18.98
2018-08-18T01:31:00.697Z,18.88
2018-08-18T01:32:00.663Z,18.91
2018-08-18T01:33:00.653Z,18.91
2018-08-18T01:34:00.638Z,18.76
2018-08-18T01:35:00.651Z,18.81
2018-08-18T01:36:00.638Z,18.80
2018-08-18T01:37:00.605Z,18.82
2018-08-18T01:38:00.597Z,18.80
2018-08-18T01:39:00.583Z,18.84
2018-08-18T01:40:00.572Z,18.81
2018-08-18T01:41:00.589Z,18.75
2018-08-18T01:42:00.549Z,18.75
2018-08-18T01:43:00.543Z,18.66
2018-08-18T01:44:00.529Z,18.62
2018-08-18T01:45:00.516Z,18.63
2018-08-18T01:46:00.529Z,18.66
2018-08-18T01:47:00.495Z,18.60
2018-08-18T01:48:00.505Z,18.55
2018-08-18T01:49:00.472Z,18.58
2018-08-18T01:50:00.465Z,18.69
2018-08-18T01:51:00.458Z,18.62
2018-08-18T01:52:00.439Z,18.63
2018-08-18T01:53:00.458Z,18.67
2018-08-18T01:54:00.419Z,18.66
2018-08-18T01:55:00.407Z,18.58
2018-08-18T01:56:00.396Z,18.62
2018-08-18T01:57:00.384Z,18.51
2018-08-18T01:58:00.395Z,18.54
2018-08-18T01:59:00.363Z,18.45
2018-08-18T02:00:00.353Z,18.50
2018-08-18T02:01:00.340Z,18.47
2018-08-18T02:02:00.329Z,18.51
2018-08-18T02:03:00.341Z,18.44
2018-08-18T02:04:00.307Z,18.37
2018-08-18T02:05:00.296Z,18.35
2018-08-18T02:06:00.288Z,18.33
2018-08-18T02:07:00.294Z,18.25
2018-08-18T02:08:00.267Z,18.26
2018-08-18T02:09:00.254Z,18.26
2018-08-18T02:10:00.262Z,18.26
2018-08-18T02:11:00.230Z,18.29
2018-08-18T02:12:00.239Z,18.30
2018-08-18T02:13:00.208Z,18.35
2018-08-18T02:14:00.197Z,18.26
2018-08-18T02:15:00.207Z,18.27
2018-08-18T02:16:00.199Z,18.33
2018-08-18T02:17:00.204Z,18.33
2018-08-18T02:18:00.156Z,18.32
2018-08-18T02:19:00.144Z,18.25
2018-08-18T02:20:00.194Z,18.29
2018-08-18T02:21:00.125Z,18.26
2018-08-18T02:22:00.148Z,18.27
2018-08-18T02:23:00.099Z,18.21
2018-08-18T02:24:00.120Z,18.23
2018-08-18T02:25:00.083Z,18.25
2018-08-18T02:26:00.065Z,18.17
2018-08-18T02:27:00.054Z,18.29
2018-08-18T02:28:00.045Z,18.23
2018-08-18T02:29:00.063Z,18.29
2018-08-18T02:30:00.021Z,18.20
2018-08-18T02:31:00.011Z,18.15
2018-08-18T02:32:00.002Z,18.25
2018-08-18T02:32:59.990Z,18.18
2018-08-18T02:34:00.015Z,18.23
2018-08-18T02:34:59.971Z,18.18
2018-08-18T02:35:59.956Z,18.23
2018-08-18T02:36:59.950Z,18.21
2018-08-18T02:37:59.933Z,18.21
2018-08-18T02:38:59.943Z,18.15
2018-08-18T02:39:59.966Z,18.26
2018-08-18T02:40:59.928Z,18.27
2018-08-18T02:41:59.888Z,18.21
2018-08-18T02:42:59.877Z,18.18
2018-08-18T02:43:59.868Z,18.11
2018-08-18T02:44:59.860Z,18.20
2018-08-18T02:45:59.874Z,18.12
2018-08-18T02:46:59.836Z,18.20
2018-08-18T02:47:59.826Z,18.14
2018-08-18T02:48:59.816Z,18.18
2018-08-18T02:49:59.801Z,18.17
2018-08-18T02:50:59.841Z,18.14
2018-08-18T02:51:59.811Z,18.00
2018-08-18T02:52:59.768Z,18.00
2018-08-18T02:53:59.760Z,18.17
2018-08-18T02:54:59.746Z,18.20
2018-08-18T02:55:59.734Z,18.20
2018-08-18T02:56:59.749Z,18.17
2018-08-18T02:57:59.712Z,17.99
2018-08-18T02:58:59.702Z,18.00
2018-08-18T02:59:59.691Z,18.12
2018-08-18T03:00:59.679Z,18.18
2018-08-18T03:01:59.690Z,18.00
2018-08-18T03:02:59.695Z,18.12
2018-08-18T03:03:59.646Z,17.99
2018-08-18T03:04:59.635Z,17.99
2018-08-18T03:05:59.625Z,18.18
2018-08-18T03:06:59.643Z,18.14
2018-08-18T03:07:59.682Z,18.07
2018-08-18T03:08:59.595Z,18.20
2018-08-18T03:09:59.585Z,18.15
2018-08-18T03:10:59.573Z,18.12
2018-08-18T03:11:59.589Z,18.15
2018-08-18T03:12:59.547Z,18.10
2018-08-18T03:13:59.536Z,18.18
2018-08-18T03:14:59.525Z,18.23
2018-08-18T03:15:59.513Z,18.18
2018-08-18T03:16:59.541Z,18.18
2018-08-18T03:17:59.491Z,18.21
2018-08-18T03:18:59.483Z,18.14
2018-08-18T03:19:59.470Z,18.03
2018-08-18T03:20:59.460Z,18.00
2018-08-18T03:21:59.471Z,18.10
2018-08-18T03:22:59.441Z,17.99
2018-08-18T03:23:59.453Z,18.11
2018-08-18T03:24:59.415Z,18.08
2018-08-18T03:25:59.404Z,18.05
2018-08-18T03:26:59.392Z,18.08
2018-08-18T03:27:59.403Z,18.07
2018-08-18T03:28:59.432Z,18.17
2018-08-18T03:29:59.360Z,18.14
2018-08-18T03:30:59.349Z,18.17
2018-08-18T03:31:59.345Z,18.17
2018-08-18T03:32:59.347Z,18.12
2018-08-18T03:33:59.319Z,18.23
2018-08-18T03:34:59.331Z,18.15
2018-08-18T03:35:59.293Z,18.25
2018-08-18T03:36:59.282Z,18.23
2018-08-18T03:37:59.270Z,18.23
2018-08-18T03:38:59.281Z,18.14
2018-08-18T03:39:59.270Z,18.20
2018-08-18T03:40:59.241Z,18.17
2018-08-18T03:41:59.227Z,18.21
2018-08-18T03:42:59.216Z,18.26
2018-08-18T03:43:59.208Z,18.21
2018-08-18T03:44:59.216Z,18.26
2018-08-18T03:45:59.183Z,18.26
2018-08-18T03:46:59.185Z,18.23
2018-08-18T03:47:59.161Z,18.25
2018-08-18T03:48:59.151Z,18.20
2018-08-18T03:49:59.148Z,18.14
2018-08-18T03:50:59.128Z,18.23
2018-08-18T03:51:59.136Z,18.29
2018-08-18T03:52:59.106Z,18.30
2018-08-18T03:53:59.095Z,18.27
2018-08-18T03:54:59.084Z,18.20
2018-08-18T03:55:59.073Z,18.21
2018-08-18T03:56:59.083Z,18.21
2018-08-18T03:57:59.051Z,18.18
2018-08-18T03:58:59.040Z,18.29
2018-08-18T03:59:59.070Z,18.32
2018-08-18T04:00:59.027Z,18.17
2018-08-18T04:01:59.154Z,18.26
2018-08-18T04:02:58.995Z,18.21
2018-08-18T04:03:59.068Z,18.25
2018-08-18T04:04:58.977Z,18.26
2018-08-18T04:05:58.979Z,18.20
2018-08-18T04:06:58.999Z,18.21
2018-08-18T04:07:58.940Z,18.12
2018-08-18T04:08:59.031Z,18.17
2018-08-18T04:09:58.923Z,18.18
2018-08-18T04:10:58.907Z,18.12
2018-08-18T04:11:58.916Z,18.17
2018-08-18T04:12:58.911Z,18.08
2018-08-18T04:13:58.882Z,18.18
2018-08-18T04:14:58.877Z,18.17
2018-08-18T04:15:58.855Z,18.18
2018-08-18T04:16:58.841Z,18.20
2018-08-18T04:17:58.852Z,18.25
2018-08-18T04:18:58.858Z,18.23
2018-08-18T04:19:58.811Z,18.12
2018-08-18T04:20:58.798Z,18.18
2018-08-18T04:21:58.786Z,18.21
2018-08-18T04:22:58.800Z,18.25
2018-08-18T04:23:58.768Z,18.14
2018-08-18T04:24:58.783Z,18.23
2018-08-18T04:25:58.743Z,18.23
2018-08-18T04:26:58.731Z,18.12
2018-08-18T04:27:58.720Z,18.08
2018-08-18T04:28:58.709Z,18.20
2018-08-18T04:29:58.727Z,18.29
2018-08-18T04:30:58.687Z,18.12
2018-08-18T04:31:58.677Z,18.11
2018-08-18T04:32:58.668Z,18.26
2018-08-18T04:33:58.655Z,18.26
2018-08-18T04:34:58.665Z,18.23
2018-08-18T04:35:58.665Z,18.25
2018-08-18T04:36:58.621Z,18.27
2018-08-18T04:37:58.613Z,18.12
2018-08-18T04:38:58.598Z,18.18
2018-08-18T04:39:58.588Z,18.27
2018-08-18T04:40:58.597Z,18.14
2018-08-18T04:41:58.572Z,18.11
2018-08-18T04:42:58.559Z,18.23
2018-08-18T04:43:58.589Z,18.25
2018-08-18T04:44:58.533Z,18.20
2018-08-18T04:45:58.545Z,18.25
2018-08-18T04:46:58.558Z,18.23
2018-08-18T04:47:58.500Z,18.18
2018-08-18T04:48:58.489Z,18.17
2018-08-18T04:49:58.480Z,18.12
2018-08-18T04:50:58.489Z,18.15
2018-08-18T04:51:58.477Z,18.18
2018-08-18T04:52:58.449Z,18.23
2018-08-18T04:53:58.435Z,18.20
2018-08-18T04:54:58.424Z,18.21
2018-08-18T04:55:58.440Z,18.21
2018-08-18T04:56:58.470Z,18.21
2018-08-18T04:57:58.393Z,18.26
2018-08-18T04:58:58.382Z,18.25
2018-08-18T04:59:58.368Z,18.35
2018-08-18T05:00:58.357Z,18.39
2018-08-18T05:01:58.372Z,18.39
2018-08-18T05:02:58.335Z,18.32
2018-08-18T05:03:58.327Z,18.41
2018-08-18T05:04:58.351Z,18.42
2018-08-18T05:05:58.302Z,18.36
2018-08-18T05:06:58.317Z,18.33
2018-08-18T05:07:58.281Z,18.32
2018-08-18T05:08:58.343Z,18.33
2018-08-18T05:09:58.258Z,18.33
2018-08-18T05:10:58.288Z,18.35
2018-08-18T05:11:58.236Z,18.45
2018-08-18T05:12:58.225Z,18.35
2018-08-18T05:13:58.215Z,18.45
2018-08-18T05:14:58.206Z,18.39
2018-08-18T05:15:58.230Z,18.45
2018-08-18T05:16:58.184Z,18.47
2018-08-18T05:17:58.172Z,18.42
2018-08-18T05:18:58.238Z,18.47
2018-08-18T05:19:58.152Z,18.44
2018-08-18T05:20:58.167Z,18.48
2018-08-18T05:21:58.149Z,18.50
2018-08-18T05:22:58.115Z,18.51
2018-08-18T05:23:58.104Z,18.48
2018-08-18T05:24:58.094Z,18.54
2018-08-18T05:25:58.087Z,18.50
2018-08-18T05:26:58.094Z,18.54
2018-08-18T05:27:58.060Z,18.58
2018-08-18T05:28:58.048Z,18.62
2018-08-18T05:29:58.038Z,18.66
2018-08-18T05:30:58.081Z,18.65
2018-08-18T05:31:58.038Z,18.66
2018-08-18T05:32:58.026Z,18.66
2018-08-18T05:33:57.993Z,18.63
2018-08-18T05:34:57.984Z,18.72
2018-08-18T05:35:57.974Z,18.76
2018-08-18T05:36:57.961Z,18.75
2018-08-18T05:37:57.971Z,18.69
2018-08-18T05:38:57.961Z,18.82
2018-08-18T05:39:57.928Z,18.81
2018-08-18T05:40:57.916Z,18.73
2018-08-18T05:41:57.906Z,18.85
2018-08-18T05:42:57.894Z,18.76
2018-08-18T05:43:57.905Z,18.80
2018-08-18T05:44:57.872Z,18.90
2018-08-18T05:45:57.864Z,18.80
2018-08-18T05:46:57.849Z,18.82
2018-08-18T05:47:57.841Z,18.80
2018-08-18T05:48:57.854Z,18.87
2018-08-18T05:49:57.818Z,18.84
2018-08-18T05:50:57.806Z,18.85
2018-08-18T05:51:57.795Z,18.78
2018-08-18T05:52:57.783Z,18.78
2018-08-18T05:53:57.803Z,18.63
2018-08-18T05:54:57.761Z,18.65
2018-08-18T05:55:57.776Z,18.62
2018-08-18T05:56:57.742Z,18.62
2018-08-18T05:57:57.759Z,18.75
2018-08-18T05:58:57.771Z,18.75
2018-08-18T05:59:57.707Z,18.73
2018-08-18T06:00:57.696Z,18.81
2018-08-18T06:01:57.794Z,18.75
2018-08-18T06:02:57.680Z,18.66
2018-08-18T06:03:57.688Z,18.70
2018-08-18T06:04:57.652Z,18.66
2018-08-18T06:05:57.661Z,18.63
2018-08-18T06:06:57.644Z,18.63
2018-08-18T06:07:57.619Z,18.75
2018-08-18T06:08:57.617Z,18.80
2018-08-18T06:09:57.595Z,18.78
2018-08-18T06:10:57.611Z,18.80
2018-08-18T06:11:57.638Z,18.78
2018-08-18T06:12:57.566Z,18.78
2018-08-18T06:13:57.552Z,18.75
2018-08-18T06:14:57.563Z,18.81
2018-08-18T06:15:57.563Z,18.82
2018-08-18T06:16:57.521Z,18.85
2018-08-18T06:17:57.509Z,18.81
2018-08-18T06:18:57.497Z,18.84
2018-08-18T06:19:57.486Z,18.80
2018-08-18T06:20:57.498Z,18.94
2018-08-18T06:21:57.464Z,19.07
2018-08-18T06:22:57.453Z,19.21
2018-08-18T06:23:57.443Z,19.28
2018-08-18T06:24:57.434Z,19.36
2018-08-18T06:25:57.450Z,19.31
2018-08-18T06:26:57.420Z,19.26
2018-08-18T06:27:57.399Z,19.31
2018-08-18T06:28:57.388Z,19.33
2018-08-18T06:29:57.377Z,19.40
2018-08-18T06:30:57.436Z,19.50
2018-08-18T06:31:57.354Z,19.48
2018-08-18T06:32:57.350Z,19.43
2018-08-18T06:33:57.367Z,19.37
2018-08-18T06:34:57.450Z,19.33
2018-08-18T06:35:57.317Z,19.40
2018-08-18T06:36:57.301Z,19.43
2018-08-18T06:37:57.290Z,19.43
2018-08-18T06:38:57.311Z,19.50
2018-08-18T06:39:57.270Z,19.54
2018-08-18T06:40:57.315Z,19.54
2018-08-18T06:41:57.393Z,19.61
2018-08-18T06:42:57.233Z,19.65
2018-08-18T06:43:57.252Z,19.66
2018-08-18T06:44:57.214Z,19.69
2018-08-18T06:45:57.201Z,19.68
2018-08-18T06:46:57.193Z,19.76
2018-08-18T06:47:57.178Z,19.86
2018-08-18T06:48:57.513Z,19.81
2018-08-18T06:49:57.157Z,19.88
2018-08-18T06:50:57.244Z,19.94
2018-08-18T06:51:57.135Z,19.94
2018-08-18T06:52:57.235Z,19.92
2018-08-18T06:53:57.112Z,20.08
2018-08-18T06:54:57.290Z,20.10
2018-08-18T06:55:57.091Z,20.14
2018-08-18T06:56:57.152Z,20.17
2018-08-18T06:57:57.090Z,20.24
2018-08-18T06:58:57.068Z,20.17
2018-08-18T06:59:57.075Z,20.11
2018-08-18T07:00:57.097Z,20.10
2018-08-18T07:01:57.035Z,20.18
2018-08-18T07:02:57.012Z,20.16
2018-08-18T07:03:57.001Z,20.11
2018-08-18T07:04:57.022Z,20.16
2018-08-18T07:05:57.054Z,20.14
2018-08-18T07:06:56.972Z,20.29
2018-08-18T07:07:56.958Z,20.33
2018-08-18T07:08:56.948Z,20.38
2018-08-18T07:09:56.978Z,20.39
2018-08-18T07:10:56.925Z,20.41
2018-08-18T07:11:56.913Z,20.54
2018-08-18T07:12:56.904Z,20.64
2018-08-18T07:13:56.896Z,20.57
2018-08-18T07:14:56.902Z,20.64
2018-08-18T07:15:56.871Z,20.67
2018-08-18T07:16:56.861Z,20.70
2018-08-18T07:17:56.850Z,20.77
2018-08-18T07:18:56.836Z,20.87
2018-08-18T07:19:56.847Z,21.04
2018-08-18T07:20:56.814Z,21.09
2018-08-18T07:21:56.803Z,21.10
2018-08-18T07:22:56.792Z,21.17
2018-08-18T07:23:56.784Z,21.07
2018-08-18T07:24:56.791Z,21.14
2018-08-18T07:25:56.759Z,21.13
2018-08-18T07:26:56.747Z,21.12
2018-08-18T07:27:56.737Z,21.21
2018-08-18T07:28:56.943Z,21.17
2018-08-18T07:29:56.748Z,21.17
2018-08-18T07:30:56.704Z,21.12
2018-08-18T07:31:56.716Z,21.24
2018-08-18T07:32:56.694Z,21.34
2018-08-18T07:33:56.674Z,21.27
2018-08-18T07:34:56.660Z,21.21
2018-08-18T07:35:56.650Z,21.16
2018-08-18T07:36:56.659Z,21.16
2018-08-18T07:37:56.632Z,21.10
2018-08-18T07:38:56.629Z,21.17
2018-08-18T07:39:56.607Z,21.24
2018-08-18T07:40:56.620Z,21.25
2018-08-18T07:41:56.613Z,21.24
2018-08-18T07:42:56.617Z,21.31
2018-08-18T07:43:56.563Z,21.46
2018-08-18T07:44:56.552Z,21.54
2018-08-18T07:45:56.562Z,21.62
2018-08-18T07:46:56.534Z,21.74
2018-08-18T07:47:56.529Z,21.82
2018-08-18T07:48:56.509Z,21.82
2018-08-18T07:49:56.575Z,21.82
2018-08-18T07:50:56.638Z,21.83
2018-08-18T07:51:56.584Z,21.90
2018-08-18T07:52:56.473Z,21.94
2018-08-18T07:53:56.458Z,21.98
2018-08-18T07:54:56.468Z,21.96
2018-08-18T07:55:56.457Z,22.05
2018-08-18T07:56:56.988Z,22.00
2018-08-18T07:57:56.449Z,22.03
2018-08-18T07:58:56.405Z,22.09
2018-08-18T07:59:56.432Z,22.07
2018-08-18T08:00:56.404Z,22.06
2018-08-18T08:01:56.370Z,22.15
2018-08-18T08:02:56.446Z,22.21
2018-08-18T08:03:56.349Z,22.28
2018-08-18T08:04:56.341Z,22.40
2018-08-18T08:05:56.352Z,22.37
2018-08-18T08:06:56.541Z,22.45
2018-08-18T08:07:56.305Z,22.58
2018-08-18T08:08:56.294Z,22.65
2018-08-18T08:09:56.284Z,22.67
2018-08-18T08:10:56.271Z,22.80
2018-08-18T08:11:56.281Z,22.83
2018-08-18T08:12:56.291Z,22.83
2018-08-18T08:20:20.991Z,22.91
2018-08-18T08:21:20.956Z,22.77
2018-08-18T08:22:20.999Z,22.85
2018-08-18T08:23:21.003Z,22.72
2018-08-18T08:24:20.941Z,22.70
2018-08-18T08:25:20.909Z,22.64
2018-08-18T08:26:20.898Z,22.64
2018-08-18T08:27:20.920Z,22.65
2018-08-18T08:28:20.878Z,22.62
2018-08-18T08:29:20.866Z,22.55
2018-08-18T08:30:20.855Z,22.67
2018-08-18T08:31:20.848Z,22.62
2018-08-18T08:32:20.857Z,22.65
2018-08-18T08:33:20.824Z,22.62
2018-08-18T08:34:20.813Z,22.70
2018-08-18T08:35:20.801Z,22.60
2018-08-18T08:36:20.811Z,22.62
2018-08-18T08:37:20.780Z,22.62
2018-08-18T08:38:20.768Z,22.67
2018-08-18T08:39:20.760Z,22.57
2018-08-18T08:40:20.748Z,22.68
2018-08-18T08:41:20.768Z,22.64
2018-08-18T08:42:20.727Z,22.62
2018-08-18T08:43:20.858Z,22.68
2018-08-18T08:44:20.704Z,22.76
2018-08-18T08:45:20.693Z,22.79
2018-08-18T08:46:20.712Z,22.75
2018-08-18T08:47:20.671Z,22.76
2018-08-18T08:48:20.660Z,22.62
2018-08-18T08:49:20.648Z,22.70
2018-08-18T08:50:20.639Z,22.80
2018-08-18T08:51:20.648Z,22.86
2018-08-18T08:52:20.621Z,23.01
2018-08-18T08:53:20.633Z,23.20
2018-08-18T08:54:20.593Z,23.13
2018-08-18T08:55:20.582Z,23.13
2018-08-18T08:56:20.571Z,23.02
2018-08-18T08:57:20.559Z,23.04
2018-08-18T08:58:20.578Z,22.97
2018-08-18T08:59:20.537Z,22.98
2018-08-18T09:00:20.529Z,22.97
2018-08-18T09:01:20.515Z,23.00
2018-08-18T09:02:20.504Z,22.98
2018-08-18T09:03:20.673Z,23.10
2018-08-18T09:04:20.483Z,22.85
2018-08-18T09:05:20.471Z,22.90
2018-08-18T09:06:20.461Z,22.91
2018-08-18T09:07:20.452Z,22.86
2018-08-18T09:08:20.458Z,23.01
2018-08-18T09:09:20.428Z,23.15
2018-08-18T09:10:20.477Z,23.10
2018-08-18T09:11:20.405Z,23.10
2018-08-18T09:12:20.394Z,23.07
2018-08-18T09:13:20.408Z,23.16
2018-08-18T09:14:20.392Z,23.04
2018-08-18T09:15:20.360Z,23.00
2018-08-18T09:16:20.348Z,22.94
2018-08-18T09:17:20.338Z,23.00
2018-08-18T09:18:20.356Z,22.92
2018-08-18T09:19:20.314Z,23.19
2018-08-18T09:20:20.304Z,23.22
2018-08-18T09:21:20.293Z,23.46
2018-08-18T09:22:20.287Z,23.51
2018-08-18T09:23:20.307Z,23.61
2018-08-18T09:24:20.261Z,23.84
2018-08-18T09:25:20.250Z,23.98
2018-08-18T09:26:20.248Z,24.10
2018-08-18T09:27:20.228Z,24.24
2018-08-18T09:28:20.249Z,24.24
2018-08-18T09:29:20.208Z,24.47
2018-08-18T09:30:20.199Z,24.52
2018-08-18T09:31:20.188Z,24.64
2018-08-18T09:32:20.173Z,24.76
2018-08-18T09:33:20.195Z,25.00
2018-08-18T09:34:20.152Z,25.18
2018-08-18T09:35:20.147Z,25.27
2018-08-18T09:36:20.227Z,25.32
2018-08-18T09:37:20.121Z,25.46
2018-08-18T09:38:20.150Z,25.55
2018-08-18T09:39:20.100Z,25.69
2018-08-18T09:40:20.091Z,25.76
2018-08-18T09:41:20.157Z,25.80
2018-08-18T09:42:20.071Z,25.91
2018-08-18T09:43:20.087Z,25.90
2018-08-18T09:44:20.050Z,25.75
2018-08-18T09:45:20.041Z,25.55
2018-08-18T09:46:20.071Z,25.43
2018-08-18T09:47:20.017Z,25.32
2018-08-18T09:48:20.196Z,25.18
2018-08-18T09:49:20.019Z,25.18
2018-08-18T09:50:20.002Z,25.02
2018-08-18T09:51:19.971Z,24.85
2018-08-18T09:52:19.964Z,24.80
2018-08-18T09:53:19.969Z,24.78
2018-08-18T09:54:19.938Z,24.84
2018-08-18T09:55:19.928Z,24.73
2018-08-18T09:56:19.916Z,24.77
2018-08-18T09:57:19.904Z,24.78
2018-08-18T09:58:19.917Z,24.78
2018-08-18T09:59:19.979Z,24.84
2018-08-18T10:00:19.897Z,24.68
2018-08-18T10:01:19.861Z,24.71
2018-08-18T10:02:19.850Z,24.77
2018-08-18T10:03:19.863Z,24.73
2018-08-18T10:04:19.829Z,24.69
2018-08-18T10:05:19.819Z,24.58
2018-08-18T10:06:19.884Z,24.53
2018-08-18T10:07:19.806Z,24.53
2018-08-18T10:08:19.816Z,24.58
2018-08-18T10:09:19.799Z,24.76
2018-08-18T10:10:19.765Z,24.84
2018-08-18T10:11:19.759Z,24.85
2018-08-18T10:12:19.778Z,25.02
2018-08-18T10:13:19.761Z,25.27
2018-08-18T10:14:19.780Z,25.30
2018-08-18T10:15:19.733Z,25.51
2018-08-18T10:16:19.699Z,25.58
2018-08-18T10:17:19.688Z,25.67
2018-08-18T10:18:19.677Z,25.80
2018-08-18T10:19:19.687Z,25.95
2018-08-18T10:20:19.655Z,26.02
2018-08-18T10:21:19.667Z,26.18
2018-08-18T10:22:19.635Z,26.21
2018-08-18T10:23:19.625Z,26.25
2018-08-18T10:24:19.614Z,26.37
2018-08-18T10:25:19.632Z,26.39
2018-08-18T10:26:19.592Z,26.55
2018-08-18T10:27:19.585Z,26.57
2018-08-18T10:28:19.571Z,26.76
2018-08-18T10:29:19.562Z,26.70
2018-08-18T10:30:19.570Z,26.72
2018-08-18T10:31:19.539Z,26.80
2018-08-18T10:32:19.549Z,26.88
2018-08-18T10:33:19.566Z,26.87
2018-08-18T10:34:19.510Z,26.91
2018-08-18T10:35:19.517Z,26.95
2018-08-18T10:36:19.484Z,27.06
2018-08-18T10:37:19.473Z,27.03
2018-08-18T10:38:19.463Z,27.13
2018-08-18T10:39:19.459Z,27.12
2018-08-18T10:40:19.463Z,27.14
2018-08-18T10:41:19.455Z,27.22
2018-08-18T10:42:19.421Z,27.25
2018-08-18T10:43:19.412Z,27.29
2018-08-18T10:44:19.425Z,27.29
2018-08-18T10:45:19.387Z,27.29
2018-08-18T10:46:19.377Z,27.19
2018-08-18T10:47:19.365Z,27.17
2018-08-18T10:48:19.355Z,27.13
2018-08-18T10:49:19.365Z,27.04
2018-08-18T10:50:19.337Z,27.04
2018-08-18T10:51:19.323Z,26.89
2018-08-18T10:52:19.313Z,27.02
2018-08-18T10:53:19.324Z,27.09
2018-08-18T10:54:19.291Z,27.21
2018-08-18T10:55:19.302Z,27.29
2018-08-18T10:56:19.273Z,27.25
2018-08-18T10:57:19.262Z,27.29
2018-08-18T10:58:19.250Z,27.41
2018-08-18T10:59:19.239Z,27.62
2018-08-18T11:00:19.257Z,27.75
2018-08-18T11:01:19.219Z,27.92
2018-08-18T11:02:19.212Z,27.84
2018-08-18T11:03:19.199Z,27.90
2018-08-18T11:04:19.201Z,28.24
2018-08-18T11:05:19.197Z,28.51
2018-08-18T11:06:19.165Z,28.83
2018-08-18T11:07:19.178Z,29.27
2018-08-18T11:08:19.145Z,29.55
2018-08-18T11:09:19.134Z,29.92
2018-08-18T11:10:19.154Z,30.27
2018-08-18T11:11:19.114Z,30.60
2018-08-18T11:12:19.104Z,31.13
2018-08-18T11:13:19.104Z,31.66
2018-08-18T11:14:19.090Z,32.30
2018-08-18T11:15:19.103Z,32.94
2018-08-18T11:16:19.069Z,33.66
2018-08-18T11:17:19.085Z,34.25
2018-08-18T11:18:19.055Z,34.89
2018-08-18T11:19:19.048Z,35.56
2018-08-18T11:20:19.083Z,35.97
2018-08-18T11:21:19.103Z,36.68
2018-08-18T11:22:19.024Z,36.68
2018-08-18T11:23:19.019Z,36.66
2018-08-18T11:24:19.129Z,36.56
2018-08-18T11:25:19.023Z,36.84
2018-08-18T11:26:19.086Z,37.03
2018-08-18T11:27:18.983Z,36.76
2018-08-18T11:28:19.202Z,36.98
2018-08-18T11:29:18.978Z,36.99
2018-08-18T11:30:18.961Z,37.29
2018-08-18T11:31:19.230Z,37.17
2018-08-18T11:32:18.952Z,37.25
2018-08-18T11:33:18.944Z,37.43
2018-08-18T11:34:19.211Z,37.89
2018-08-18T11:35:19.391Z,37.85
2018-08-18T11:36:19.518Z,38.00
2018-08-18T11:37:19.027Z,38.11
2018-08-18T11:38:19.327Z,38.12
2018-08-18T11:39:19.074Z,38.28
2018-08-18T11:40:19.033Z,38.23
2018-08-18T11:41:19.051Z,37.46
2018-08-18T11:42:19.228Z,36.99
2018-08-18T11:43:18.993Z,36.81
2018-08-18T11:44:18.899Z,36.78
2018-08-18T11:45:18.894Z,35.56
2018-08-18T11:46:18.892Z,34.88
2018-08-18T11:47:18.891Z,34.77
2018-08-18T11:48:18.872Z,34.40
2018-08-18T11:49:18.895Z,34.17
2018-08-18T11:50:18.827Z,34.16
2018-08-18T11:51:18.819Z,33.93
2018-08-18T11:52:18.811Z,33.66
2018-08-18T11:53:18.810Z,33.12
2018-08-18T11:54:18.825Z,33.04
2018-08-18T11:55:18.782Z,32.32
2018-08-18T11:56:18.794Z,31.58
2018-08-18T11:57:18.766Z,31.20
2018-08-18T11:58:18.768Z,31.17
2018-08-18T11:59:18.769Z,31.19
2018-08-18T12:00:18.736Z,31.14
2018-08-18T12:01:18.752Z,31.14
2018-08-18T12:02:18.731Z,30.80
2018-08-18T12:03:18.736Z,30.46
2018-08-18T12:04:18.729Z,29.70
2018-08-18T12:05:18.690Z,29.26
2018-08-18T12:06:18.699Z,28.85
2018-08-18T12:07:18.666Z,28.81
2018-08-18T12:08:18.657Z,28.71
2018-08-18T12:09:19.094Z,28.51
2018-08-18T12:10:18.636Z,28.58
2018-08-18T12:11:18.630Z,28.31
2018-08-18T12:12:18.615Z,28.81
2018-08-18T12:13:18.606Z,29.24
2018-08-18T12:14:18.618Z,29.57
2018-08-18T12:15:18.587Z,29.63
2018-08-18T12:16:18.598Z,29.82
2018-08-18T12:17:18.566Z,30.07
2018-08-18T12:18:18.557Z,30.19
2018-08-18T12:19:18.547Z,30.22
2018-08-18T12:20:18.563Z,30.11
2018-08-18T12:21:18.550Z,30.26
2018-08-18T12:22:18.578Z,30.45
2018-08-18T12:23:18.506Z,30.53
2018-08-18T12:24:18.497Z,30.77
2018-08-18T12:25:18.486Z,30.79
2018-08-18T12:26:18.497Z,30.95
2018-08-18T12:27:18.467Z,30.83
2018-08-18T12:28:18.456Z,30.84
2018-08-18T12:29:18.447Z,30.94
2018-08-18T12:30:18.440Z,31.10
2018-08-18T12:31:18.448Z,31.19
2018-08-18T12:32:18.418Z,31.13
2018-08-18T12:33:18.408Z,31.21
2018-08-18T12:34:18.418Z,31.16
2018-08-18T12:35:18.388Z,31.21
2018-08-18T12:36:18.471Z,31.46
2018-08-18T12:37:18.377Z,31.58
2018-08-18T12:38:18.358Z,31.53
2018-08-18T12:39:18.376Z,31.66
2018-08-18T12:40:18.341Z,31.39
2018-08-18T12:41:18.329Z,31.12
2018-08-18T12:42:18.326Z,30.82
2018-08-18T12:43:18.311Z,30.64
2018-08-18T12:44:18.320Z,30.86
2018-08-18T12:45:18.287Z,30.94
2018-08-18T12:46:18.279Z,31.31
2018-08-18T12:47:18.291Z,31.62
2018-08-18T12:48:18.258Z,31.68
2018-08-18T12:49:18.247Z,31.57
2018-08-18T12:50:18.531Z,31.72
2018-08-18T12:51:18.229Z,31.85
2018-08-18T12:52:18.221Z,31.81
2018-08-18T12:53:18.212Z,31.39
2018-08-18T13:26:01.640Z,31.13
2018-08-18T13:27:01.613Z,30.07
2018-08-18T13:28:01.603Z,29.78
2018-08-18T13:29:01.593Z,29.49
2018-08-18T13:30:01.598Z,29.11